»·PEaware :: N245LG KPSP-KSMO

N245LG :: KPSP-KSMO

FLIGHT INFORMATION

Flight Status: Arrived
Operator: Privately registered:
United States
More flights under this callsign
Pilot: Erik A. (17503)
Aircraft: CESSNA 172 SKYHAWK
(C172)
More flights by this aircraft type
Origin: KPSP Palm Springs Intl
United States
Destination: KSMO Santa Monica Mun
United States
More flights between these airports :: More routes between these airports
Route: +
File this flight plan on PilotEdge
Remarks:
Altitude:
(Current/Filed)
8,500ft
Speed:
(Current/Filed)
0kts
Departed: 26-Dec-17 12:38 PM
Arrived: 26-Dec-17 01:41 PM
Distance/Time
Traveled:
97nm/1:03
Distance/Time
To Go:
Arrived

Flight Plot

Page will automatically refresh every two minutes.

Flight plan parsing failed; only flown route is shown


Map Options




Map Legend


Flown Route
Filed Route
Departure Airport
Arrival Airport
Navaid (VOR, NDB)
Fix

Horizontal Profiles

Position Reports

Time Latitude Longitude Heading Altitude Ground
Speed
26-Dec-17 12:31 33.825680 -116.509329 270 480ft 0kts
26-Dec-17 12:32 33.825680 -116.509332 270 480ft 0kts
26-Dec-17 12:33 33.825680 -116.509337 270 480ft 0kts
26-Dec-17 12:34 33.825321 -116.507550 90 480ft 9kts
26-Dec-17 12:35 33.824187 -116.504849 145 480ft 10kts
26-Dec-17 12:36 33.821084 -116.502071 142 480ft 17kts
26-Dec-17 12:37 33.818519 -116.498840 89 480ft 0kts
26-Dec-17 12:38 33.818519 -116.498838 89 480ft 0kts
26-Dec-17 12:39 33.818519 -116.498836 89 480ft 0kts
26-Dec-17 12:40 33.818519 -116.498832 89 480ft 0kts
26-Dec-17 12:41 33.818519 -116.498826 89 480ft 0kts
26-Dec-17 12:42 33.818519 -116.498823 89 480ft 0kts
26-Dec-17 12:43 33.819682 -116.498801 323 480ft 22kts
26-Dec-17 12:44 33.834391 -116.511695 325 1014ft 73kts
26-Dec-17 12:45 33.852186 -116.524174 328 1763ft 72kts
26-Dec-17 12:46 33.870185 -116.536100 328 2620ft 76kts
26-Dec-17 12:47 33.884337 -116.555944 303 3623ft 77kts
26-Dec-17 12:48 33.897291 -116.576758 317 4465ft 84kts
26-Dec-17 12:49 33.903149 -116.602711 284 5319ft 82kts
26-Dec-17 12:50 33.908739 -116.628170 284 6086ft 80kts
26-Dec-17 12:51 33.910199 -116.655352 274 6814ft 80kts
26-Dec-17 12:52 33.912889 -116.681583 284 7569ft 75kts
26-Dec-17 12:53 33.917207 -116.706671 285 8239ft 76kts
26-Dec-17 12:54 33.923488 -116.733060 288 8640ft 98kts
26-Dec-17 12:55 33.931706 -116.769881 288 8470ft 116kts
26-Dec-17 12:56 33.941144 -116.804236 289 8520ft 103kts
26-Dec-17 12:57 33.951249 -116.836664 306 8490ft 106kts
26-Dec-17 12:58 33.961257 -116.869351 285 8510ft 104kts
26-Dec-17 12:59 33.968162 -116.903384 274 8722ft 106kts
26-Dec-17 13:00 33.967708 -116.942305 273 8600ft 119kts
26-Dec-17 13:01 33.969423 -116.982026 278 8398ft 114kts
26-Dec-17 13:02 33.973979 -117.018586 284 8567ft 107kts
26-Dec-17 13:03 33.980542 -117.053374 287 8533ft 109kts
26-Dec-17 13:04 33.990769 -117.088555 294 8603ft 111kts
26-Dec-17 13:05 34.003420 -117.123263 295 8575ft 114kts
26-Dec-17 13:06 34.013139 -117.159415 279 8572ft 117kts
26-Dec-17 13:07 34.017997 -117.197975 281 8564ft 116kts
26-Dec-17 13:08 34.024443 -117.235543 287 8417ft 114kts
26-Dec-17 13:09 34.032838 -117.272359 283 8278ft 113kts
26-Dec-17 13:10 34.038049 -117.308119 280 8334ft 109kts
26-Dec-17 13:11 34.041862 -117.344744 280 8368ft 109kts
26-Dec-17 13:12 34.047406 -117.380925 288 8407ft 109kts
26-Dec-17 13:13 34.054602 -117.416892 286 8420ft 110kts
26-Dec-17 13:14 34.063062 -117.451932 290 8482ft 109kts
26-Dec-17 13:15 34.070826 -117.480974 291 8519ft 108kts
26-Dec-17 13:16 34.077658 -117.522828 278 8569ft 109kts
26-Dec-17 13:17 34.080537 -117.560648 275 8587ft 126kts
26-Dec-17 13:18 34.082088 -117.596684 277 8484ft 127kts
26-Dec-17 13:19 34.085499 -117.643984 279 8430ft 116kts
26-Dec-17 13:20 34.089288 -117.681839 279 8410ft 111kts
26-Dec-17 13:21 34.091441 -117.713060 275 8360ft 111kts
26-Dec-17 13:22 34.094520 -117.756818 283 8457ft 111kts
26-Dec-17 13:23 34.099424 -117.787334 284 8554ft 111kts
26-Dec-17 13:24 34.106491 -117.823678 287 8488ft 111kts
26-Dec-17 13:25 34.115388 -117.859491 291 8579ft 111kts
26-Dec-17 13:26 34.127242 -117.893435 299 8822ft 112kts
26-Dec-17 13:27 34.143967 -117.928867 304 8497ft 121kts
26-Dec-17 13:28 34.161497 -117.962428 307 8403ft 111kts
26-Dec-17 13:29 34.178343 -117.991775 304 8470ft 100kts
26-Dec-17 13:30 34.192596 -118.022072 291 8533ft 104kts
26-Dec-17 13:31 34.195392 -118.057234 273 8687ft 103kts
26-Dec-17 13:32 34.196234 -118.092438 284 8640ft 106kts
26-Dec-17 13:33 34.194291 -118.128242 267 8641ft 106kts
26-Dec-17 13:34 34.182599 -118.162076 235 8544ft 114kts
26-Dec-17 13:35 34.162882 -118.191876 235 8399ft 117kts
26-Dec-17 13:36 34.146249 -118.225906 259 7943ft 115kts
26-Dec-17 13:37 34.140919 -118.263060 262 7134ft 113kts
26-Dec-17 13:38 34.134086 -118.299991 253 6168ft 112kts
26-Dec-17 13:39 34.124717 -118.335463 248 5271ft 110kts
26-Dec-17 13:40 34.106111 -118.364057 222 4378ft 108kts
26-Dec-17 13:41 34.083828 -118.388678 217 3600ft 108kts
26-Dec-17 13:42 34.059803 -118.409233 210 2901ft 106kts
26-Dec-17 13:43 34.035239 -118.428244 226 1898ft 106kts
26-Dec-17 13:44 34.025297 -118.416632 30 1440ft 79kts
26-Dec-17 13:45 34.031313 -118.431846 230 840ft 57kts
26-Dec-17 13:46 34.021195 -118.445075 222 247ft 49kts
26-Dec-17 13:47 34.016137 -118.451040 218 178ft 13kts
26-Dec-17 13:48 34.015032 -118.450750 96 178ft 5kts
26-Dec-17 13:49 34.015085 -118.450730 320 178ft 0kts

Navigation Log

Ident Type
Flight plan parsing failed, navigation log unavailable